Time;durP1;ratioP1;P1;durP2;ratioP2;P2;SDS_P1;SDS_P2;PMS_P1;PMS_P2;Temp;Humidity;BMP_temperature;BMP_pressure;BME280_temperature;BME280_humidity;BME280_pressure;Samples;Min_cycle;Max_cycle;Signal;HPM_P1;HPM_P2
2022/10/22 00:02:06;;;;;;;;;;;20.40;99.90;;;;;;5032571;28;20048;-77
2022/10/22 00:04:33;;;;;;;;;;;20.30;99.90;;;;;;5032052;28;19913;-76
2022/10/22 00:07:00;;;;;;;;;;;20.30;99.90;;;;;;5032337;28;19910;-76
2022/10/22 00:09:27;;;;;;;;;;;20.20;99.90;;;;;;5032407;28;19920;-75
2022/10/22 00:11:53;;;;;;;;;;;20.30;99.90;;;;;;5032558;28;19916;-70
2022/10/22 00:14:20;;;;;;;;;;;20.40;99.90;;;;;;5032244;28;20393;-71
2022/10/22 00:16:46;;;;;;;;;;;20.50;99.90;;;;;;5031366;28;19990;-71
2022/10/22 00:19:14;;;;;;;;;;;20.50;99.90;;;;;;5031925;28;19921;-68
2022/10/22 00:21:40;;;;;;;;;;;20.60;99.90;;;;;;5032337;28;19932;-67
2022/10/22 00:24:07;;;;;;;;;;;20.70;99.90;;;;;;5031779;28;19913;-70
2022/10/22 00:26:34;;;;;;;;;;;20.80;99.90;;;;;;5032299;28;19909;-73
2022/10/22 00:29:00;;;;;;;;;;;21.00;99.90;;;;;;5031902;28;19917;-76
2022/10/22 00:31:27;;;;;;;;;;;21.10;99.90;;;;;;5032040;28;19967;-79
2022/10/22 00:33:54;;;;;;;;;;;21.30;99.90;;;;;;5031621;28;20024;-76
2022/10/22 00:36:20;;;;;;;;;;;21.40;99.90;;;;;;5032096;28;19917;-78
2022/10/22 00:38:47;;;;;;;;;;;21.60;99.90;;;;;;5031848;28;19921;-78
2022/10/22 00:41:14;;;;;;;;;;;21.70;99.90;;;;;;5032093;28;20304;-78
2022/10/22 00:44:01;;;;;;;;;;;21.80;99.90;;;;;;5031883;28;19999;-78
2022/10/22 00:46:28;;;;;;;;;;;22.00;99.90;;;;;;5032446;28;20694;-78
2022/10/22 00:48:55;;;;;;;;;;;22.20;99.90;;;;;;5031285;28;19921;-73
2022/10/22 00:51:24;;;;;;;;;;;22.40;99.90;;;;;;5032422;28;19913;-78
2022/10/22 00:53:54;;;;;;;;;;;22.70;99.90;;;;;;5032149;28;19956;-77
2022/10/22 00:56:23;;;;;;;;;;;22.90;99.90;;;;;;5032387;28;19913;-74
2022/10/22 00:58:52;;;;;;;;;;;23.10;99.90;;;;;;5032828;28;19998;-75
2022/10/22 01:01:24;;;;;;;;;;;23.20;99.90;;;;;;5033122;28;19909;-79
2022/10/22 01:03:51;;;;;;;;;;;23.30;99.90;;;;;;5032060;28;19909;-78
2022/10/22 01:06:23;;;;;;;;;;;23.50;99.90;;;;;;5033132;28;20295;-76
2022/10/22 01:08:56;;;;;;;;;;;23.70;99.90;;;;;;5033134;28;19916;-78
2022/10/22 01:11:25;;;;;;;;;;;23.70;99.90;;;;;;5040609;28;19967;-77
2022/10/22 01:13:55;;;;;;;;;;;24.10;99.90;;;;;;5032773;28;20395;-78
2022/10/22 01:16:28;;;;;;;;;;;24.20;99.90;;;;;;5030987;28;19921;-77
2022/10/22 01:19:04;;;;;;;;;;;24.10;99.90;;;;;;5029415;28;19913;-77
2022/10/22 01:21:36;;;;;;;;;;;24.10;99.90;;;;;;5029777;28;19963;-73
2022/10/22 01:24:11;;;;;;;;;;;24.30;99.90;;;;;;5029418;28;19958;-74
2022/10/22 01:26:37;;;;;;;;;;;24.40;99.90;;;;;;5029843;28;19940;-72
2022/10/22 01:29:12;;;;;;;;;;;24.40;99.90;;;;;;5032213;28;20024;-78
2022/10/22 01:31:44;;;;;;;;;;;24.50;99.90;;;;;;5034962;28;19909;-76
2022/10/22 01:34:13;;;;;;;;;;;24.50;99.90;;;;;;5034963;28;19991;-78
2022/10/22 01:36:40;;;;;;;;;;;24.50;99.90;;;;;;5035356;28;19913;-78
2022/10/22 01:39:07;;;;;;;;;;;24.30;99.90;;;;;;5035201;28;19920;-78
2022/10/22 01:41:34;;;;;;;;;;;24.10;99.90;;;;;;5035155;28;19924;-77
2022/10/22 01:44:01;;;;;;;;;;;24.00;99.90;;;;;;5034729;28;19932;-77
2022/10/22 01:46:28;;;;;;;;;;;23.80;99.90;;;;;;5035213;28;20291;-78
2022/10/22 01:48:57;;;;;;;;;;;23.50;99.90;;;;;;5034560;28;19925;-76
2022/10/22 01:51:38;;;;;;;;;;;23.40;99.90;;;;;;5018827;28;19926;-73
2022/10/22 01:54:25;;;;;;;;;;;23.20;99.90;;;;;;4994764;28;19944;-77
2022/10/22 01:56:58;;;;;;;;;;;23.00;99.90;;;;;;4995805;28;19909;-78
2022/10/22 01:59:24;;;;;;;;;;;23.00;99.90;;;;;;4995416;28;19921;-77
2022/10/22 02:02:03;;;;;;;;;;;22.90;99.90;;;;;;4995391;28;19917;-74
2022/10/22 02:04:35;;;;;;;;;;;22.80;99.90;;;;;;4994691;28;20398;-80
2022/10/22 02:07:04;;;;;;;;;;;22.70;99.90;;;;;;4995137;28;19917;-78
2022/10/22 02:09:32;;;;;;;;;;;22.50;99.90;;;;;;4995147;28;20433;-76
2022/10/22 02:12:00;;;;;;;;;;;22.40;99.90;;;;;;4995276;28;19921;-77
2022/10/22 02:14:29;;;;;;;;;;;22.20;99.90;;;;;;4993524;28;20295;-74
2022/10/22 02:16:57;;;;;;;;;;;22.00;99.90;;;;;;4994692;28;20437;-78
2022/10/22 02:20:01;;;;;;;;;;;21.90;99.90;;;;;;4995488;28;20374;-77
2022/10/22 02:22:29;;;;;;;;;;;21.80;99.90;;;;;;4953328;29;19911;-75
2022/10/22 02:24:56;;;;;;;;;;;21.70;99.90;;;;;;4953241;29;19915;-77
2022/10/22 02:27:28;;;;;;;;;;;21.70;99.90;;;;;;4973587;28;19968;-74
2022/10/22 02:30:02;;;;;;;;;;;21.60;99.90;;;;;;4994910;28;19909;-75
2022/10/22 02:32:32;;;;;;;;;;;21.70;99.90;;;;;;4996202;28;19917;-77
2022/10/22 02:34:59;;;;;;;;;;;21.80;99.90;;;;;;5014109;28;20438;-78
2022/10/22 02:37:27;;;;;;;;;;;21.90;99.90;;;;;;5014383;28;19913;-73
2022/10/22 02:39:55;;;;;;;;;;;22.00;99.90;;;;;;5013478;28;20095;-73
2022/10/22 02:42:23;;;;;;;;;;;22.00;99.90;;;;;;5013576;28;19917;-79
2022/10/22 02:44:50;;;;;;;;;;;22.10;99.90;;;;;;5013552;28;20247;-77
2022/10/22 02:47:16;;;;;;;;;;;22.00;99.90;;;;;;5013833;28;20414;-77
2022/10/22 02:49:43;;;;;;;;;;;21.90;99.90;;;;;;5013851;28;19926;-75
2022/10/22 02:52:10;;;;;;;;;;;21.80;99.90;;;;;;5013986;28;20362;-78
2022/10/22 02:54:36;;;;;;;;;;;21.80;99.90;;;;;;5013356;28;20457;-75
2022/10/22 02:57:03;;;;;;;;;;;21.70;99.90;;;;;;5013646;28;19917;-72
2022/10/22 02:59:30;;;;;;;;;;;21.70;99.90;;;;;;5013574;28;20369;-77
2022/10/22 03:01:56;;;;;;;;;;;21.70;99.90;;;;;;5013590;28;19916;-78
2022/10/22 03:04:23;;;;;;;;;;;21.50;99.90;;;;;;5013590;28;19917;-78
2022/10/22 03:06:50;;;;;;;;;;;21.40;99.90;;;;;;5013799;28;19948;-78
2022/10/22 03:09:16;;;;;;;;;;;21.40;99.90;;;;;;5013581;28;20278;-73
2022/10/22 03:11:43;;;;;;;;;;;21.30;99.90;;;;;;5013543;28;19979;-72
2022/10/22 03:14:10;;;;;;;;;;;21.20;99.90;;;;;;5013320;28;19914;-71
2022/10/22 03:16:36;;;;;;;;;;;21.20;99.90;;;;;;5013561;28;19964;-70
2022/10/22 03:19:03;;;;;;;;;;;21.10;99.90;;;;;;5013061;28;19922;-73
2022/10/22 03:21:45;;;;;;;;;;;21.20;99.90;;;;;;5013117;28;20397;-71
2022/10/22 03:24:14;;;;;;;;;;;21.30;99.90;;;;;;5013230;28;20032;-73
2022/10/22 03:26:42;;;;;;;;;;;21.30;99.90;;;;;;5013613;28;20294;-75
2022/10/22 03:29:10;;;;;;;;;;;21.30;99.90;;;;;;5013212;28;19910;-74
2022/10/22 03:31:37;;;;;;;;;;;21.30;99.90;;;;;;5013136;28;20264;-70
2022/10/22 03:34:04;;;;;;;;;;;21.40;99.90;;;;;;5013148;28;20080;-73
2022/10/22 03:36:31;;;;;;;;;;;21.30;99.90;;;;;;5013298;28;19936;-71
2022/10/22 03:38:58;;;;;;;;;;;21.30;99.90;;;;;;5012954;28;19956;-74
2022/10/22 03:41:25;;;;;;;;;;;21.30;99.90;;;;;;5013352;28;19957;-73
2022/10/22 03:43:53;;;;;;;;;;;21.20;99.90;;;;;;5012899;28;20255;-71
2022/10/22 03:46:19;;;;;;;;;;;21.20;99.90;;;;;;5013052;28;19941;-77
2022/10/22 03:48:46;;;;;;;;;;;21.10;99.90;;;;;;5009228;28;20461;-73
2022/10/22 03:51:13;;;;;;;;;;;21.00;99.90;;;;;;5011218;28;19918;-78
2022/10/22 03:53:39;;;;;;;;;;;20.90;99.90;;;;;;5011117;28;20012;-75
2022/10/22 03:56:09;;;;;;;;;;;20.90;99.90;;;;;;5012714;28;20016;-77
2022/10/22 03:58:37;;;;;;;;;;;20.80;99.90;;;;;;5012737;28;20455;-76
2022/10/22 04:01:07;;;;;;;;;;;20.80;99.90;;;;;;5012713;28;19913;-77
2022/10/22 04:03:34;;;;;;;;;;;20.80;99.90;;;;;;5012587;28;19914;-77
2022/10/22 04:06:01;;;;;;;;;;;20.80;99.90;;;;;;5012625;28;19916;-74
2022/10/22 04:08:28;;;;;;;;;;;20.80;99.90;;;;;;5012567;28;20396;-72
2022/10/22 04:10:55;;;;;;;;;;;20.80;99.90;;;;;;5012387;28;19914;-70
2022/10/22 04:13:21;;;;;;;;;;;20.80;99.90;;;;;;5012414;28;20379;-75
2022/10/22 04:15:48;;;;;;;;;;;20.80;99.90;;;;;;5012616;28;19921;-77
2022/10/22 04:18:15;;;;;;;;;;;20.80;99.90;;;;;;5012524;28;19980;-76
2022/10/22 04:20:43;;;;;;;;;;;20.80;99.90;;;;;;5010583;28;21711;-78
2022/10/22 04:23:10;;;;;;;;;;;20.80;99.90;;;;;;5012136;28;20355;-72
2022/10/22 04:25:37;;;;;;;;;;;20.90;99.90;;;;;;5012337;28;19914;-74
2022/10/22 04:28:06;;;;;;;;;;;20.90;99.90;;;;;;5012411;28;19910;-71
2022/10/22 04:30:33;;;;;;;;;;;20.90;99.90;;;;;;5012392;28;19917;-76
2022/10/22 04:33:00;;;;;;;;;;;20.90;99.90;;;;;;5011635;28;20036;-76
2022/10/22 04:35:27;;;;;;;;;;;20.90;99.90;;;;;;5012415;28;19909;-76
2022/10/22 04:37:54;;;;;;;;;;;20.90;99.90;;;;;;5012624;28;19965;-72
2022/10/22 04:40:21;;;;;;;;;;;20.90;99.90;;;;;;5012301;28;19924;-70
2022/10/22 04:42:47;;;;;;;;;;;21.00;99.90;;;;;;5011841;28;19914;-72
2022/10/22 04:45:14;;;;;;;;;;;20.90;99.90;;;;;;5012351;28;19910;-69
2022/10/22 04:47:41;;;;;;;;;;;20.90;99.90;;;;;;5011754;28;19925;-68
2022/10/22 04:50:08;;;;;;;;;;;20.80;99.90;;;;;;5012137;28;19913;-69
2022/10/22 04:52:34;;;;;;;;;;;20.80;99.90;;;;;;5011609;28;19918;-69
2022/10/22 04:55:01;;;;;;;;;;;20.80;99.90;;;;;;5011795;28;19910;-72
2022/10/22 04:57:31;;;;;;;;;;;20.70;99.90;;;;;;5012254;28;19992;-71
2022/10/22 04:59:57;;;;;;;;;;;20.70;99.90;;;;;;5011963;28;20360;-76
2022/10/22 05:02:24;;;;;;;;;;;20.80;99.90;;;;;;5011783;28;19945;-78
2022/10/22 05:04:51;;;;;;;;;;;20.80;99.90;;;;;;5015786;28;19956;-77
2022/10/22 05:07:18;;;;;;;;;;;20.80;99.90;;;;;;5015888;28;19921;-68
2022/10/22 05:09:44;;;;;;;;;;;20.80;99.90;;;;;;5015831;28;19933;-72
2022/10/22 05:12:11;;;;;;;;;;;20.80;99.90;;;;;;5015700;28;20013;-70
2022/10/22 05:14:38;;;;;;;;;;;20.80;99.90;;;;;;5015747;28;20292;-77
2022/10/22 05:17:04;;;;;;;;;;;20.80;99.90;;;;;;5015481;28;20428;-71
2022/10/22 05:19:32;;;;;;;;;;;20.80;99.90;;;;;;5015844;28;19957;-71
2022/10/22 05:22:00;;;;;;;;;;;20.80;99.90;;;;;;5015400;28;19917;-68
2022/10/22 05:24:27;;;;;;;;;;;20.80;99.90;;;;;;5015566;28;19986;-71
2022/10/22 05:26:55;;;;;;;;;;;20.70;99.90;;;;;;5015417;28;20013;-67
2022/10/22 05:29:22;;;;;;;;;;;20.70;99.90;;;;;;5015499;28;19969;-76
2022/10/22 05:31:49;;;;;;;;;;;20.70;99.90;;;;;;5015296;28;20287;-68
2022/10/22 05:34:16;;;;;;;;;;;20.70;99.90;;;;;;5015315;28;19910;-68
2022/10/22 05:36:42;;;;;;;;;;;20.70;99.90;;;;;;5015428;28;19918;-68
2022/10/22 05:39:09;;;;;;;;;;;20.70;99.90;;;;;;5015161;28;19914;-68
2022/10/22 05:41:36;;;;;;;;;;;20.60;99.90;;;;;;5015189;28;19909;-74
2022/10/22 05:44:03;;;;;;;;;;;20.60;99.90;;;;;;5014628;28;20012;-68
2022/10/22 05:46:32;;;;;;;;;;;20.50;99.90;;;;;;5015005;28;19916;-69
2022/10/22 05:49:01;;;;;;;;;;;20.60;99.90;;;;;;5014822;28;20477;-76
2022/10/22 05:51:28;;;;;;;;;;;20.60;99.90;;;;;;5015292;28;19914;-72
2022/10/22 05:53:56;;;;;;;;;;;20.60;99.90;;;;;;5014834;28;20003;-76
2022/10/22 05:56:24;;;;;;;;;;;20.50;99.90;;;;;;5014774;28;19917;-69
2022/10/22 05:58:51;;;;;;;;;;;20.50;99.90;;;;;;5014772;28;19925;-71
2022/10/22 06:01:22;;;;;;;;;;;20.50;99.90;;;;;;5014884;28;19910;-71
2022/10/22 06:03:48;;;;;;;;;;;20.60;99.90;;;;;;5006082;28;19968;-77
2022/10/22 06:06:15;;;;;;;;;;;20.60;99.90;;;;;;5006746;28;19920;-75
2022/10/22 06:08:43;;;;;;;;;;;20.60;99.90;;;;;;5006872;28;19913;-75
2022/10/22 06:11:10;;;;;;;;;;;20.60;99.90;;;;;;5006816;28;19920;-70
2022/10/22 06:13:37;;;;;;;;;;;20.60;99.90;;;;;;5006560;28;19913;-77
2022/10/22 06:16:04;;;;;;;;;;;20.60;99.90;;;;;;5005197;28;19913;-73
2022/10/22 06:18:32;;;;;;;;;;;20.70;99.90;;;;;;5007501;28;19979;-73
2022/10/22 06:21:03;;;;;;;;;;;20.70;99.90;;;;;;5006615;28;19924;-74
2022/10/22 06:23:30;;;;;;;;;;;20.70;99.90;;;;;;5006711;28;20386;-79
2022/10/22 06:25:57;;;;;;;;;;;20.70;99.90;;;;;;5006186;28;20283;-72
2022/10/22 06:28:24;;;;;;;;;;;20.60;99.90;;;;;;5006360;28;19913;-68
2022/10/22 06:30:51;;;;;;;;;;;20.60;99.90;;;;;;5005793;28;19918;-70
2022/10/22 06:33:17;;;;;;;;;;;20.60;99.90;;;;;;5006413;28;19991;-69
2022/10/22 06:35:44;;;;;;;;;;;20.60;99.90;;;;;;5006351;28;20012;-72
2022/10/22 06:38:11;;;;;;;;;;;20.60;99.90;;;;;;5006200;28;20016;-78
2022/10/22 06:40:37;;;;;;;;;;;20.60;99.90;;;;;;5006065;28;19921;-75
2022/10/22 06:43:07;;;;;;;;;;;20.60;99.90;;;;;;5005437;28;19913;-67
2022/10/22 06:45:33;;;;;;;;;;;20.70;99.90;;;;;;5005946;28;20333;-71
2022/10/22 06:48:00;;;;;;;;;;;20.70;99.90;;;;;;5005652;28;20298;-74
2022/10/22 06:50:27;;;;;;;;;;;20.70;99.90;;;;;;5005752;28;19914;-79
2022/10/22 06:52:53;;;;;;;;;;;20.60;99.90;;;;;;5005481;28;19921;-74
2022/10/22 06:55:20;;;;;;;;;;;20.60;99.90;;;;;;5005827;28;19944;-72
2022/10/22 06:57:47;;;;;;;;;;;20.50;99.90;;;;;;5005985;28;19921;-78
2022/10/22 07:00:13;;;;;;;;;;;20.60;99.90;;;;;;5005732;28;19921;-76
2022/10/22 07:02:40;;;;;;;;;;;20.50;99.90;;;;;;5005587;28;19913;-69
2022/10/22 07:05:07;;;;;;;;;;;20.50;99.90;;;;;;5005408;28;19925;-73
2022/10/22 07:07:34;;;;;;;;;;;20.50;99.90;;;;;;5005746;28;19913;-74
2022/10/22 07:10:00;;;;;;;;;;;20.50;99.90;;;;;;5005352;28;19913;-70
2022/10/22 07:12:27;;;;;;;;;;;20.50;99.90;;;;;;5005463;28;19913;-72
2022/10/22 07:14:54;;;;;;;;;;;20.50;99.90;;;;;;5005228;28;19962;-71
2022/10/22 07:17:20;;;;;;;;;;;20.40;99.90;;;;;;5005038;28;20291;-70
2022/10/22 07:19:47;;;;;;;;;;;20.40;99.90;;;;;;5005311;28;19976;-70
2022/10/22 07:22:14;;;;;;;;;;;20.40;99.90;;;;;;5005083;28;19917;-71
2022/10/22 07:24:40;;;;;;;;;;;20.30;99.90;;;;;;5005531;28;19913;-70
2022/10/22 07:27:08;;;;;;;;;;;20.30;99.90;;;;;;5004757;28;19913;-72
2022/10/22 07:29:35;;;;;;;;;;;20.30;99.90;;;;;;5005280;28;19913;-74
2022/10/22 07:32:01;;;;;;;;;;;20.30;99.90;;;;;;5004617;28;19920;-72
2022/10/22 07:34:28;;;;;;;;;;;20.30;99.90;;;;;;5004976;28;19952;-72
2022/10/22 07:36:56;;;;;;;;;;;20.30;99.90;;;;;;5004451;28;19913;-70
2022/10/22 07:39:24;;;;;;;;;;;20.20;99.90;;;;;;5005281;28;20497;-69
2022/10/22 07:41:51;;;;;;;;;;;20.20;99.90;;;;;;5004824;28;19914;-69
2022/10/22 07:44:19;;;;;;;;;;;20.20;99.90;;;;;;5004661;28;19953;-75
2022/10/22 07:46:46;;;;;;;;;;;20.20;99.90;;;;;;5004748;28;20024;-72
2022/10/22 07:49:12;;;;;;;;;;;20.10;99.90;;;;;;5004170;28;19929;-69
2022/10/22 07:51:42;;;;;;;;;;;20.10;99.90;;;;;;5004734;28;19920;-68
2022/10/22 07:54:09;;;;;;;;;;;20.10;99.90;;;;;;5004576;28;19914;-71
2022/10/22 07:56:35;;;;;;;;;;;20.00;99.90;;;;;;5004413;28;20386;-72
2022/10/22 07:59:02;;;;;;;;;;;19.90;99.90;;;;;;5004339;28;19924;-72
2022/10/22 08:01:30;;;;;;;;;;;19.90;99.90;;;;;;5004456;28;19940;-69
2022/10/22 08:03:56;;;;;;;;;;;19.90;99.90;;;;;;5003758;28;19952;-73
2022/10/22 08:06:23;;;;;;;;;;;19.80;99.90;;;;;;5004512;28;20345;-69
2022/10/22 08:08:50;;;;;;;;;;;19.80;99.90;;;;;;5004316;28;20008;-71
2022/10/22 08:11:17;;;;;;;;;;;19.80;99.90;;;;;;5004293;28;19968;-76
2022/10/22 08:13:43;;;;;;;;;;;19.80;99.90;;;;;;5003698;28;19953;-74
2022/10/22 08:16:10;;;;;;;;;;;19.80;99.90;;;;;;5004078;28;19924;-69
2022/10/22 08:18:38;;;;;;;;;;;19.80;99.90;;;;;;5004281;28;19967;-78
2022/10/22 08:21:05;;;;;;;;;;;19.70;99.90;;;;;;5004068;28;19918;-75
2022/10/22 08:23:31;;;;;;;;;;;19.70;99.90;;;;;;5003853;28;19914;-69
2022/10/22 08:25:58;;;;;;;;;;;19.70;99.90;;;;;;5004018;28;19944;-69
2022/10/22 08:28:27;;;;;;;;;;;19.70;99.90;;;;;;5004010;28;19963;-74
2022/10/22 08:30:54;;;;;;;;;;;19.60;99.90;;;;;;5003854;28;19913;-72
2022/10/22 08:33:20;;;;;;;;;;;19.60;99.90;;;;;;5003668;28;20020;-71
2022/10/22 08:35:48;;;;;;;;;;;19.60;99.90;;;;;;5003823;28;20028;-71
2022/10/22 08:38:15;;;;;;;;;;;19.60;99.90;;;;;;5003300;28;19920;-74
2022/10/22 08:40:42;;;;;;;;;;;19.60;99.90;;;;;;5003766;28;20020;-72
2022/10/22 08:43:15;;;;;;;;;;;19.50;99.90;;;;;;5003742;28;19913;-77
2022/10/22 08:46:00;;;;;;;;;;;19.50;99.90;;;;;;5004032;28;19920;-72
2022/10/22 08:48:35;;;;;;;;;;;19.50;99.90;;;;;;5003831;28;20703;-74
2022/10/22 08:51:02;;;;;;;;;;;19.50;99.90;;;;;;5003733;28;19929;-71
2022/10/22 08:53:38;;;;;;;;;;;19.50;99.90;;;;;;5003512;28;19914;-68
2022/10/22 08:56:04;;;;;;;;;;;19.40;99.90;;;;;;5004015;28;19920;-70
2022/10/22 08:58:49;;;;;;;;;;;19.40;99.90;;;;;;5003874;28;19913;-73
2022/10/22 09:01:22;;;;;;;;;;;19.40;99.90;;;;;;5003378;28;19960;-75
2022/10/22 09:04:01;;;;;;;;;;;19.40;99.90;;;;;;5003280;28;20375;-69
2022/10/22 09:06:32;;;;;;;;;;;19.40;99.90;;;;;;5002150;28;19920;-69
2022/10/22 09:09:00;;;;;;;;;;;19.40;99.90;;;;;;5003411;28;19913;-75
2022/10/22 09:11:35;;;;;;;;;;;19.40;99.90;;;;;;5003560;28;20067;-74
2022/10/22 09:14:02;;;;;;;;;;;19.40;99.90;;;;;;5003640;28;19918;-74
2022/10/22 09:16:35;;;;;;;;;;;19.40;99.90;;;;;;5003854;28;19931;-75
2022/10/22 09:19:08;;;;;;;;;;;19.40;99.90;;;;;;5003097;28;19922;-74
2022/10/22 09:21:52;;;;;;;;;;;19.40;99.90;;;;;;5003474;28;19913;-76
2022/10/22 09:24:36;;;;;;;;;;;19.40;99.90;;;;;;5003809;28;20418;-70
2022/10/22 09:27:10;;;;;;;;;;;19.40;99.90;;;;;;5003105;28;20137;-76
2022/10/22 09:29:36;;;;;;;;;;;19.40;99.90;;;;;;5003730;28;19913;-74
2022/10/22 09:32:03;;;;;;;;;;;19.40;99.90;;;;;;5001476;28;20104;-77
2022/10/22 09:34:30;;;;;;;;;;;19.40;99.90;;;;;;5003592;28;20647;-77
2022/10/22 09:36:57;;;;;;;;;;;19.40;99.90;;;;;;5001866;28;19913;-69
2022/10/22 09:39:25;;;;;;;;;;;19.40;99.90;;;;;;5003376;28;19921;-69
2022/10/22 09:41:52;;;;;;;;;;;19.30;99.90;;;;;;5003157;28;20585;-70
2022/10/22 09:44:19;;;;;;;;;;;19.30;99.90;;;;;;5003287;28;19913;-74
2022/10/22 09:46:46;;;;;;;;;;;19.30;99.90;;;;;;5003355;28;19921;-72
2022/10/22 09:49:15;;;;;;;;;;;19.30;99.90;;;;;;5004656;28;19929;-74
2022/10/22 09:51:47;;;;;;;;;;;19.30;99.90;;;;;;5006505;28;19953;-77
2022/10/22 09:54:18;;;;;;;;;;;19.30;99.90;;;;;;5007276;28;19913;-77
2022/10/22 09:57:04;;;;;;;;;;;19.30;99.90;;;;;;5007083;28;20516;-70
2022/10/22 09:59:33;;;;;;;;;;;19.20;99.90;;;;;;5007065;28;19921;-78
2022/10/22 10:02:06;;;;;;;;;;;19.20;99.90;;;;;;5006232;28;20422;-72
2022/10/22 10:04:40;;;;;;;;;;;19.20;99.90;;;;;;5007397;28;19925;-74
2022/10/22 10:07:14;;;;;;;;;;;19.20;99.90;;;;;;5006118;28;19914;-75
2022/10/22 10:09:41;;;;;;;;;;;19.20;99.90;;;;;;5007248;28;19914;-72
2022/10/22 10:12:14;;;;;;;;;;;19.20;99.90;;;;;;5006529;28;20613;-74
2022/10/22 10:14:46;;;;;;;;;;;19.20;99.90;;;;;;5006429;28;20340;-70
2022/10/22 10:17:16;;;;;;;;;;;19.20;99.90;;;;;;5006884;28;20012;-72
2022/10/22 10:19:46;;;;;;;;;;;19.20;99.90;;;;;;5006562;28;19925;-74
2022/10/22 10:22:13;;;;;;;;;;;19.20;99.90;;;;;;5006322;28;19988;-77
2022/10/22 10:24:48;;;;;;;;;;;19.20;99.90;;;;;;5006267;28;19921;-74
2022/10/22 10:27:22;;;;;;;;;;;19.30;99.90;;;;;;5006534;28;19920;-74
2022/10/22 10:29:58;;;;;;;;;;;19.20;99.90;;;;;;4996512;28;19924;-68
2022/10/22 10:32:43;;;;;;;;;;;19.20;99.90;;;;;;4992671;28;19913;-68
2022/10/22 10:35:19;;;;;;;;;;;19.20;99.90;;;;;;4991581;28;19910;-70
2022/10/22 10:38:08;;;;;;;;;;;19.20;99.90;;;;;;4992643;28;20372;-71
2022/10/22 10:40:50;;;;;;;;;;;19.20;99.90;;;;;;4993022;28;20396;-71
2022/10/22 10:43:19;;;;;;;;;;;19.20;99.90;;;;;;4992626;28;20005;-74
2022/10/22 10:45:46;;;;;;;;;;;19.20;99.90;;;;;;4992192;28;19947;-73
2022/10/22 10:48:31;;;;;;;;;;;19.20;99.90;;;;;;5003102;28;19929;-67
2022/10/22 10:51:15;;;;;;;;;;;19.20;99.90;;;;;;5011682;28;19939;-71
2022/10/22 10:53:42;;;;;;;;;;;19.20;99.90;;;;;;5013580;28;19920;-69
2022/10/22 10:56:27;;;;;;;;;;;19.20;99.90;;;;;;5013602;28;20336;-74
2022/10/22 10:58:53;;;;;;;;;;;19.20;99.90;;;;;;5013801;28;19918;-75
2022/10/22 11:01:23;;;;;;;;;;;19.20;99.90;;;;;;5012647;28;19928;-70
2022/10/22 11:04:28;;;;;;;;;;;19.20;99.90;;;;;;5013708;28;19909;-71
2022/10/22 11:06:56;;;;;;;;;;;19.20;99.90;;;;;;4933615;29;20009;-73
2022/10/22 11:09:28;;;;;;;;;;;19.20;99.90;;;;;;4933968;29;19925;-70
2022/10/22 11:11:58;;;;;;;;;;;19.10;99.90;;;;;;4974737;28;20286;-72
2022/10/22 11:14:59;;;;;;;;;;;19.10;99.90;;;;;;5013409;28;19993;-75
2022/10/22 11:17:29;;;;;;;;;;;19.10;99.90;;;;;;4934000;29;20009;-73
2022/10/22 11:20:00;;;;;;;;;;;19.10;99.90;;;;;;4994929;28;116169;-75
2022/10/22 11:22:36;;;;;;;;;;;19.10;99.90;;;;;;5013490;28;19910;-74
2022/10/22 11:25:02;;;;;;;;;;;19.10;99.90;;;;;;5013296;28;20382;-73
2022/10/22 11:27:41;;;;;;;;;;;19.10;99.90;;;;;;5013663;28;19910;-69
2022/10/22 11:30:11;;;;;;;;;;;19.10;99.90;;;;;;5012564;28;19918;-71
2022/10/22 11:32:39;;;;;;;;;;;19.10;99.90;;;;;;5011605;28;20283;-69
2022/10/22 11:35:08;;;;;;;;;;;19.10;99.90;;;;;;5013057;28;19913;-70
2022/10/22 11:37:37;;;;;;;;;;;19.10;99.90;;;;;;5013126;28;19909;-73
2022/10/22 11:40:13;;;;;;;;;;;19.10;99.90;;;;;;5012610;28;20332;-70
2022/10/22 11:42:43;;;;;;;;;;;19.10;99.90;;;;;;5013072;28;20390;-73
2022/10/22 11:45:13;;;;;;;;;;;19.20;99.90;;;;;;5011798;28;19909;-71
2022/10/22 11:47:57;;;;;;;;;;;19.20;99.90;;;;;;5012903;28;19978;-74
2022/10/22 11:50:43;;;;;;;;;;;19.10;99.90;;;;;;5012722;28;20450;-71
2022/10/22 11:53:13;;;;;;;;;;;19.20;99.90;;;;;;5012877;28;19961;-74
2022/10/22 11:55:46;;;;;;;;;;;19.20;99.90;;;;;;5013034;28;19909;-72
2022/10/22 11:58:32;;;;;;;;;;;19.10;99.90;;;;;;5013005;28;19933;-76
2022/10/22 12:01:02;;;;;;;;;;;19.10;99.90;;;;;;5011800;28;19947;-71
2022/10/22 12:03:31;;;;;;;;;;;19.10;99.90;;;;;;5012686;28;19910;-71
2022/10/22 12:06:04;;;;;;;;;;;19.10;99.90;;;;;;5012905;28;20001;-70
2022/10/22 12:08:32;;;;;;;;;;;19.10;99.90;;;;;;5012800;28;19982;-70
2022/10/22 12:10:58;;;;;;;;;;;19.10;99.90;;;;;;5011792;28;20386;-67
2022/10/22 12:13:27;;;;;;;;;;;19.10;99.90;;;;;;5011261;28;20413;-71
2022/10/22 12:16:03;;;;;;;;;;;19.10;99.90;;;;;;5003752;28;20016;-70
2022/10/22 12:18:39;;;;;;;;;;;19.10;99.90;;;;;;5004737;28;19913;-69
2022/10/22 12:21:09;;;;;;;;;;;19.10;99.90;;;;;;5003663;28;19925;-69
2022/10/22 12:23:36;;;;;;;;;;;19.10;99.90;;;;;;5002777;28;19913;-71
2022/10/22 12:26:04;;;;;;;;;;;19.10;99.90;;;;;;4999138;28;20315;-72
2022/10/22 12:28:39;;;;;;;;;;;19.10;99.90;;;;;;4989915;28;19983;-70
2022/10/22 12:31:13;;;;;;;;;;;19.10;99.90;;;;;;5002001;28;19922;-71
2022/10/22 12:33:40;;;;;;;;;;;19.10;99.90;;;;;;5004172;28;20672;-72
2022/10/22 12:36:13;;;;;;;;;;;19.10;99.90;;;;;;5003756;28;20008;-69
2022/10/22 12:38:45;;;;;;;;;;;19.10;99.90;;;;;;5002188;28;20613;-73
2022/10/22 12:41:12;;;;;;;;;;;19.10;99.90;;;;;;4987590;28;19937;-68
2022/10/22 12:43:39;;;;;;;;;;;19.20;99.90;;;;;;4984370;28;19914;-69
2022/10/22 12:46:12;;;;;;;;;;;19.10;99.90;;;;;;4984449;28;19999;-72
2022/10/22 12:48:41;;;;;;;;;;;19.10;99.90;;;;;;4998442;28;20380;-68
2022/10/22 12:51:08;;;;;;;;;;;19.10;99.90;;;;;;5003759;28;19935;-73
2022/10/22 12:53:42;;;;;;;;;;;19.10;99.90;;;;;;5003279;28;20394;-69
2022/10/22 12:56:17;;;;;;;;;;;19.10;99.90;;;;;;5004136;28;19920;-69
2022/10/22 12:59:03;;;;;;;;;;;19.10;99.90;;;;;;5004215;28;19913;-69
2022/10/22 13:01:33;;;;;;;;;;;19.10;99.90;;;;;;5003586;28;20016;-69
2022/10/22 13:04:05;;;;;;;;;;;19.10;99.90;;;;;;5003695;28;19981;-71
2022/10/22 13:06:34;;;;;;;;;;;19.20;99.90;;;;;;5003836;28;19949;-68
2022/10/22 13:09:01;;;;;;;;;;;19.20;99.90;;;;;;5003940;28;19921;-68
2022/10/22 13:11:53;;;;;;;;;;;19.20;99.90;;;;;;5003466;28;20696;-68
2022/10/22 13:14:27;;;;;;;;;;;19.20;99.90;;;;;;4999589;28;19921;-68
2022/10/22 13:17:06;;;;;;;;;;;19.20;99.90;;;;;;5003837;28;20016;-69
2022/10/22 13:20:04;;;;;;;;;;;19.20;99.90;;;;;;5003781;28;20039;-69
2022/10/22 13:22:37;;;;;;;;;;;19.20;99.90;;;;;;4991574;28;20784;-69
2022/10/22 13:25:04;;;;;;;;;;;19.20;99.90;;;;;;5006180;28;19921;-69
2022/10/22 13:27:32;;;;;;;;;;;19.20;99.90;;;;;;5011924;28;19910;-69
2022/10/22 13:30:01;;;;;;;;;;;19.20;99.90;;;;;;5015700;28;20336;-68
2022/10/22 13:32:32;;;;;;;;;;;19.20;99.90;;;;;;5015453;28;19909;-71
2022/10/22 13:35:00;;;;;;;;;;;19.20;99.90;;;;;;5015494;28;19909;-68
2022/10/22 13:37:28;;;;;;;;;;;19.20;99.90;;;;;;5015782;28;20411;-69
2022/10/22 13:39:54;;;;;;;;;;;19.20;99.90;;;;;;5015593;28;19976;-69
2022/10/22 13:42:21;;;;;;;;;;;19.20;99.90;;;;;;5015239;28;19910;-68
2022/10/22 13:44:48;;;;;;;;;;;19.30;99.90;;;;;;5015180;28;20011;-69
2022/10/22 13:47:24;;;;;;;;;;;19.20;99.90;;;;;;5015131;28;19917;-69
2022/10/22 13:49:52;;;;;;;;;;;19.20;99.90;;;;;;5015424;28;19921;-68
2022/10/22 13:52:24;;;;;;;;;;;19.20;99.90;;;;;;5015144;28;20004;-69
2022/10/22 13:54:51;;;;;;;;;;;19.20;99.90;;;;;;5015150;28;20274;-69
2022/10/22 13:57:18;;;;;;;;;;;19.20;99.90;;;;;;5015363;28;19913;-69
2022/10/22 13:59:44;;;;;;;;;;;19.20;99.90;;;;;;5015380;28;19921;-68
2022/10/22 14:02:11;;;;;;;;;;;19.20;99.90;;;;;;5014977;28;19909;-68
2022/10/22 14:04:39;;;;;;;;;;;19.20;99.90;;;;;;5015460;28;19964;-68
2022/10/22 14:07:13;;;;;;;;;;;19.20;99.90;;;;;;5015006;28;19909;-72
2022/10/22 14:09:40;;;;;;;;;;;19.10;99.90;;;;;;5015112;28;20276;-68
2022/10/22 14:12:15;;;;;;;;;;;19.10;99.90;;;;;;5014781;28;20338;-68
2022/10/22 14:14:42;;;;;;;;;;;19.10;99.90;;;;;;5014732;28;19956;-68
2022/10/22 14:17:11;;;;;;;;;;;19.10;99.90;;;;;;5014797;28;20299;-68
2022/10/22 14:19:37;;;;;;;;;;;19.10;99.90;;;;;;5014764;28;19913;-68
2022/10/22 14:22:04;;;;;;;;;;;19.10;99.90;;;;;;5014572;28;19949;-68
2022/10/22 14:24:32;;;;;;;;;;;19.10;99.90;;;;;;5014838;28;20327;-69
2022/10/22 14:26:58;;;;;;;;;;;19.00;99.90;;;;;;5014522;28;20287;-68
2022/10/22 14:29:25;;;;;;;;;;;19.00;99.90;;;;;;5014665;28;20367;-68
2022/10/22 14:31:52;;;;;;;;;;;19.00;99.90;;;;;;5014372;28;19920;-68